Time;durP1;ratioP1;P1;durP2;ratioP2;P2;SDS_P1;SDS_P2;PMS_P1;PMS_P2;Temp;Humidity;BMP_temperature;BMP_pressure;BME280_temperature;BME280_humidity;BME280_pressure;Samples;Min_cycle;Max_cycle;Signal;HPM_P1;HPM_P2
2023/08/17 00:00:26;;;;;;;14.37;13.10;;;17.30;99.90;;;;;;4960939;28;20491;-56
2023/08/17 00:02:53;;;;;;;15.37;14.07;;;17.30;99.90;;;;;;4960703;29;20841;-55
2023/08/17 00:05:21;;;;;;;14.77;13.57;;;17.30;99.90;;;;;;4960542;29;20827;-56
2023/08/17 00:07:48;;;;;;;14.60;13.20;;;17.30;99.90;;;;;;4978844;28;20476;-56
2023/08/17 00:10:15;;;;;;;14.73;13.37;;;17.30;99.90;;;;;;4977315;28;20471;-57
2023/08/17 00:12:42;;;;;;;16.00;14.60;;;17.30;99.90;;;;;;4979577;28;20484;-56
2023/08/17 00:15:11;;;;;;;16.20;14.70;;;17.30;99.90;;;;;;4979691;28;20556;-57
2023/08/17 00:17:39;;;;;;;14.60;13.30;;;17.30;99.90;;;;;;4965826;28;20471;-58
2023/08/17 00:20:09;;;;;;;16.67;15.07;;;17.40;99.90;;;;;;4959895;29;20463;-57
2023/08/17 00:22:37;;;;;;;16.60;15.10;;;17.40;99.90;;;;;;4960721;28;20474;-58
2023/08/17 00:25:04;;;;;;;16.90;15.40;;;17.30;99.90;;;;;;4960143;29;20888;-58
2023/08/17 00:27:33;;;;;;;14.60;13.23;;;17.30;99.90;;;;;;4960433;28;20463;-59
2023/08/17 00:30:00;;;;;;;15.47;14.10;;;17.30;99.90;;;;;;4960219;29;20561;-59
2023/08/17 00:32:29;;;;;;;14.80;13.43;;;17.30;99.90;;;;;;4959261;28;20477;-58
2023/08/17 00:34:56;;;;;;;15.23;13.83;;;17.20;99.90;;;;;;4976407;28;20498;-58
2023/08/17 00:37:23;;;;;;;15.73;14.33;;;17.20;99.90;;;;;;4979382;28;20935;-57
2023/08/17 00:39:50;;;;;;;16.53;15.03;;;17.20;99.90;;;;;;4979264;28;20969;-57
2023/08/17 00:42:17;;;;;;;17.23;15.43;;;17.20;99.90;;;;;;4977569;28;20524;-57
2023/08/17 00:44:45;;;;;;;14.83;13.43;;;17.20;99.90;;;;;;4979144;28;20536;-57
2023/08/17 00:47:12;;;;;;;14.33;13.13;;;17.20;99.90;;;;;;4979311;28;20489;-57
2023/08/17 00:49:41;;;;;;;14.83;13.63;;;17.10;99.90;;;;;;4979554;28;20480;-58
2023/08/17 00:52:08;;;;;;;14.77;13.47;;;17.10;99.90;;;;;;4976979;28;20457;-56
2023/08/17 00:54:36;;;;;;;15.53;13.87;;;17.00;99.90;;;;;;4959596;29;20496;-57
2023/08/17 00:57:06;;;;;;;14.93;13.53;;;17.00;99.90;;;;;;4964103;28;20589;-57
2023/08/17 00:59:34;;;;;;;14.83;13.27;;;17.00;99.90;;;;;;4975343;28;20553;-57
2023/08/17 01:02:02;;;;;;;15.17;14.03;;;17.00;99.90;;;;;;4962050;28;20462;-58
2023/08/17 01:04:30;;;;;;;15.33;13.90;;;16.90;99.90;;;;;;4957378;29;20469;-56
2023/08/17 01:06:58;;;;;;;16.00;14.60;;;16.90;99.90;;;;;;4959542;29;20549;-57
2023/08/17 01:09:26;;;;;;;15.57;14.13;;;17.00;99.90;;;;;;4959432;29;20780;-56
2023/08/17 01:12:01;;;;;;;14.90;13.60;;;16.90;99.90;;;;;;4959800;28;20506;-57
2023/08/17 01:14:37;;;;;;;15.67;13.97;;;16.90;99.90;;;;;;4959791;28;20564;-56
2023/08/17 01:17:09;;;;;;;14.40;12.90;;;16.80;99.90;;;;;;4959050;29;20593;-57
2023/08/17 01:19:37;;;;;;;13.30;12.17;;;16.80;99.90;;;;;;4959704;28;20459;-56
2023/08/17 01:22:41;;;;;;;12.50;11.20;;;16.80;99.90;;;;;;4958366;28;20467;-56
2023/08/17 01:25:10;;;;;;;13.40;12.40;;;16.90;99.90;;;;;;4963045;28;20466;-57
2023/08/17 01:27:40;;;;;;;11.67;10.47;;;16.90;99.90;;;;;;4960236;28;20558;-57
2023/08/17 01:30:09;;;;;;;12.23;11.03;;;16.80;99.90;;;;;;4978368;28;20473;-56
2023/08/17 01:32:42;;;;;;;12.03;10.83;;;16.80;99.90;;;;;;4978055;28;20469;-57
2023/08/17 01:35:17;;;;;;;12.10;10.90;;;16.80;99.90;;;;;;4978429;28;20465;-56
2023/08/17 01:37:44;;;;;;;9.90;9.10;;;16.80;99.90;;;;;;4978588;28;20838;-56
2023/08/17 01:40:14;;;;;;;10.30;9.20;;;16.80;99.90;;;;;;4975405;28;20473;-57
2023/08/17 01:42:43;;;;;;;10.23;9.23;;;16.80;99.90;;;;;;4978220;28;20927;-56
2023/08/17 01:45:11;;;;;;;9.27;8.27;;;16.80;99.90;;;;;;4978457;28;20461;-57
2023/08/17 01:47:39;;;;;;;10.43;9.30;;;16.80;99.90;;;;;;4978381;28;20553;-57
2023/08/17 01:50:07;;;;;;;10.40;8.30;;;16.80;99.90;;;;;;4977907;28;20553;-56
2023/08/17 01:52:34;;;;;;;9.80;8.90;;;16.90;99.90;;;;;;4961871;28;20803;-57
2023/08/17 01:55:02;;;;;;;9.83;8.93;;;16.90;99.90;;;;;;4958572;28;20805;-57
2023/08/17 01:57:30;;;;;;;10.10;9.10;;;17.00;99.90;;;;;;4958790;29;20849;-57
2023/08/17 01:59:57;;;;;;;9.90;8.90;;;17.00;99.90;;;;;;4971657;28;20466;-56
2023/08/17 02:02:24;;;;;;;9.03;8.30;;;16.90;99.90;;;;;;4977909;28;20741;-56
2023/08/17 02:04:52;;;;;;;9.73;8.90;;;17.00;99.90;;;;;;4977915;28;20971;-56
2023/08/17 02:07:19;;;;;;;10.33;9.40;;;17.00;99.90;;;;;;4963863;28;20554;-56
2023/08/17 02:09:46;;;;;;;9.60;8.80;;;17.00;99.90;;;;;;4958636;28;20561;-56
2023/08/17 02:12:13;;;;;;;9.87;9.03;;;16.90;99.90;;;;;;4958391;29;20463;-56
2023/08/17 02:14:42;;;;;;;10.57;9.60;;;16.90;99.90;;;;;;4958658;29;20498;-56
2023/08/17 02:17:09;;;;;;;9.43;8.50;;;16.90;99.90;;;;;;4959178;28;20498;-56
2023/08/17 02:19:36;;;;;;;9.67;8.77;;;16.80;99.90;;;;;;4958784;29;20905;-56
2023/08/17 02:22:04;;;;;;;10.87;9.90;;;16.90;99.90;;;;;;4970351;28;20461;-56
2023/08/17 02:24:31;;;;;;;11.20;9.37;;;16.90;99.90;;;;;;4977895;28;20501;-56
2023/08/17 02:26:58;;;;;;;11.33;10.03;;;17.00;99.90;;;;;;4978115;28;20468;-54
2023/08/17 02:29:25;;;;;;;10.50;9.50;;;17.00;99.90;;;;;;4977744;28;20561;-56
2023/08/17 02:31:54;;;;;;;10.83;9.83;;;17.00;99.90;;;;;;4974256;28;20553;-57
2023/08/17 02:34:21;;;;;;;9.83;8.90;;;16.90;99.90;;;;;;4967962;28;20500;-56
2023/08/17 02:36:48;;;;;;;11.00;9.90;;;16.80;99.90;;;;;;4981336;28;20864;-57
2023/08/17 02:39:16;;;;;;;10.57;9.50;;;16.80;99.90;;;;;;4981204;28;20870;-56
2023/08/17 02:41:44;;;;;;;11.93;10.87;;;16.80;99.90;;;;;;4980902;28;20560;-57
2023/08/17 02:44:11;;;;;;;11.93;10.80;;;16.80;99.90;;;;;;4980694;28;20563;-56
2023/08/17 02:46:39;;;;;;;13.27;10.90;;;16.80;99.90;;;;;;4961933;29;20804;-56
2023/08/17 02:49:07;;;;;;;13.23;10.90;;;16.80;99.90;;;;;;4961789;29;20468;-57
2023/08/17 02:51:34;;;;;;;12.07;11.07;;;16.90;99.90;;;;;;4961841;29;20549;-56
2023/08/17 02:54:01;;;;;;;12.33;10.50;;;16.90;99.90;;;;;;4961431;29;20490;-56
2023/08/17 02:56:29;;;;;;;13.03;11.93;;;17.00;99.90;;;;;;4961426;29;20505;-56
2023/08/17 02:58:56;;;;;;;15.50;12.20;;;17.00;99.90;;;;;;4961437;29;20558;-57
2023/08/17 03:01:23;;;;;;;13.70;12.50;;;16.90;99.90;;;;;;4961305;29;20467;-56
2023/08/17 03:03:50;;;;;;;14.97;13.23;;;17.00;99.90;;;;;;4962520;28;20467;-56
2023/08/17 03:06:19;;;;;;;18.03;12.33;;;17.00;99.90;;;;;;4980722;28;20732;-57
2023/08/17 03:08:46;;;;;;;14.70;13.40;;;17.00;99.90;;;;;;4979000;28;20759;-56
2023/08/17 03:11:13;;;;;;;13.63;12.43;;;16.90;99.90;;;;;;4980488;28;20462;-57
2023/08/17 03:13:40;;;;;;;14.20;12.90;;;16.90;99.90;;;;;;4980859;28;20462;-56
2023/08/17 03:16:07;;;;;;;17.07;14.20;;;16.90;99.90;;;;;;4979808;28;20457;-57
2023/08/17 03:18:35;;;;;;;17.97;16.13;;;16.80;99.90;;;;;;4972155;28;20912;-58
2023/08/17 03:21:02;;;;;;;17.47;15.97;;;16.80;99.90;;;;;;4961381;28;20817;-57
2023/08/17 03:23:30;;;;;;;16.80;15.20;;;16.80;99.90;;;;;;4972446;28;20473;-56
2023/08/17 03:25:57;;;;;;;17.17;15.67;;;16.70;99.90;;;;;;4980666;28;20893;-56
2023/08/17 03:28:25;;;;;;;16.90;15.30;;;16.70;99.90;;;;;;4977238;28;20925;-56
2023/08/17 03:30:56;;;;;;;18.00;16.13;;;16.60;99.90;;;;;;4961094;29;20947;-56
2023/08/17 03:33:23;;;;;;;17.97;16.17;;;16.60;99.90;;;;;;4962119;28;20474;-57
2023/08/17 03:35:51;;;;;;;17.83;16.10;;;16.70;99.90;;;;;;4960410;28;20550;-56
2023/08/17 03:38:18;;;;;;;18.03;16.30;;;16.70;99.90;;;;;;4966758;28;20493;-56
2023/08/17 03:40:47;;;;;;;17.63;16.20;;;16.70;99.90;;;;;;4977932;28;20929;-56
2023/08/17 03:43:14;;;;;;;17.10;15.60;;;16.70;99.90;;;;;;4966762;28;20489;-56
2023/08/17 03:45:43;;;;;;;17.00;15.50;;;16.70;99.90;;;;;;4960149;28;20469;-57
2023/08/17 03:48:10;;;;;;;16.87;15.37;;;16.70;99.90;;;;;;4960630;29;20918;-57
2023/08/17 03:50:37;;;;;;;17.90;16.10;;;16.70;99.90;;;;;;4971947;28;20473;-57
2023/08/17 03:53:05;;;;;;;19.40;17.70;;;16.70;99.90;;;;;;4978894;28;20490;-57
2023/08/17 03:55:32;;;;;;;19.70;18.00;;;16.60;99.90;;;;;;4978150;28;20473;-57
2023/08/17 03:58:00;;;;;;;19.70;17.90;;;16.60;99.90;;;;;;4980266;28;20556;-56
2023/08/17 04:00:28;;;;;;;19.17;17.43;;;16.50;99.90;;;;;;4972036;28;20786;-57
2023/08/17 04:02:55;;;;;;;21.10;19.20;;;16.50;99.90;;;;;;4960724;29;20458;-56
2023/08/17 04:05:22;;;;;;;22.60;20.10;;;16.50;99.90;;;;;;4960904;28;20491;-56
2023/08/17 04:07:49;;;;;;;21.43;19.23;;;16.40;99.90;;;;;;4960559;28;20470;-56
2023/08/17 04:10:16;;;;;;;21.77;19.67;;;16.40;99.90;;;;;;4961572;28;20473;-57
2023/08/17 04:12:44;;;;;;;23.53;21.23;;;16.50;99.90;;;;;;4977779;28;20466;-56
2023/08/17 04:15:12;;;;;;;22.67;20.47;;;16.50;99.90;;;;;;4980025;28;20465;-57
2023/08/17 04:17:40;;;;;;;26.13;21.03;;;16.50;99.90;;;;;;4979847;28;20754;-57
2023/08/17 04:20:08;;;;;;;25.43;22.90;;;16.40;99.90;;;;;;4979052;28;20552;-57
2023/08/17 04:22:36;;;;;;;24.47;21.87;;;16.40;99.90;;;;;;4962351;28;20473;-57
2023/08/17 04:25:03;;;;;;;27.33;23.90;;;16.40;99.90;;;;;;4960532;28;20498;-57
2023/08/17 04:27:30;;;;;;;26.77;23.87;;;16.40;99.90;;;;;;4979005;28;20801;-55
2023/08/17 04:29:58;;;;;;;25.53;23.00;;;16.40;99.90;;;;;;4979532;28;20903;-56
2023/08/17 04:32:26;;;;;;;23.67;21.37;;;16.40;99.90;;;;;;4979182;28;20512;-56
2023/08/17 04:34:53;;;;;;;25.47;22.97;;;16.50;99.90;;;;;;4979208;28;20462;-56
2023/08/17 04:37:21;;;;;;;26.20;23.70;;;16.50;99.90;;;;;;4964155;28;20550;-56
2023/08/17 04:39:49;;;;;;;25.93;23.27;;;16.50;99.90;;;;;;4976456;28;20505;-57
2023/08/17 04:42:16;;;;;;;25.43;22.70;;;16.50;99.90;;;;;;4977828;28;20649;-57
2023/08/17 04:44:43;;;;;;;24.90;22.20;;;16.50;99.90;;;;;;4977468;28;20554;-58
2023/08/17 04:47:10;;;;;;;26.13;23.07;;;16.60;99.90;;;;;;4977981;28;20458;-57
2023/08/17 04:49:39;;;;;;;26.23;23.50;;;16.50;99.90;;;;;;4975819;28;20847;-63
2023/08/17 04:52:06;;;;;;;26.80;24.03;;;16.60;99.90;;;;;;4976289;28;20572;-63
2023/08/17 04:54:33;;;;;;;27.67;24.77;;;16.50;99.90;;;;;;4976510;28;20843;-63
2023/08/17 04:57:01;;;;;;;27.20;23.90;;;16.50;99.90;;;;;;4976394;28;20771;-63
2023/08/17 04:59:28;;;;;;;30.83;25.20;;;16.60;99.90;;;;;;4974712;28;20469;-64
2023/08/17 05:01:55;;;;;;;26.30;23.63;;;16.60;99.90;;;;;;4977005;28;20458;-62
2023/08/17 05:04:22;;;;;;;25.13;22.73;;;16.60;99.90;;;;;;4966444;28;20470;-63
2023/08/17 05:06:51;;;;;;;27.50;24.67;;;16.60;99.90;;;;;;4959163;28;20514;-63
2023/08/17 05:09:18;;;;;;;26.63;24.27;;;16.70;99.90;;;;;;4959201;29;20469;-63
2023/08/17 05:11:45;;;;;;;29.60;24.50;;;16.70;99.90;;;;;;4976951;28;20465;-64
2023/08/17 05:14:13;;;;;;;27.83;24.57;;;16.70;99.90;;;;;;4978357;28;20504;-63
2023/08/17 05:16:40;;;;;;;26.47;22.87;;;16.70;99.90;;;;;;4977462;28;20489;-63
2023/08/17 05:19:07;;;;;;;25.50;22.80;;;16.70;99.90;;;;;;4976930;28;20468;-62
2023/08/17 05:21:36;;;;;;;25.90;23.60;;;16.70;99.90;;;;;;4978006;28;20488;-63
2023/08/17 05:24:05;;;;;;;26.53;23.80;;;16.70;99.90;;;;;;4978271;28;20544;-64
2023/08/17 05:26:32;;;;;;;26.10;23.20;;;16.80;99.90;;;;;;4978032;28;20469;-63
2023/08/17 05:29:00;;;;;;;24.67;22.13;;;16.70;99.90;;;;;;4978671;28;20457;-64
2023/08/17 05:31:27;;;;;;;24.90;22.30;;;16.80;99.90;;;;;;4976957;28;20527;-63
2023/08/17 05:33:54;;;;;;;24.83;22.30;;;16.80;99.90;;;;;;4977578;28;20515;-63
2023/08/17 05:36:22;;;;;;;25.70;23.10;;;16.80;99.90;;;;;;4967914;28;20490;-63
2023/08/17 05:38:49;;;;;;;24.17;21.77;;;16.90;99.90;;;;;;4959024;28;20601;-63
2023/08/17 05:41:17;;;;;;;24.00;20.60;;;17.00;99.90;;;;;;4957787;28;20466;-63
2023/08/17 05:43:45;;;;;;;24.27;21.80;;;17.00;99.90;;;;;;4956778;28;20561;-62
2023/08/17 05:46:12;;;;;;;24.80;22.30;;;17.00;99.90;;;;;;4964025;28;20527;-62
2023/08/17 05:48:40;;;;;;;24.87;22.50;;;17.00;99.90;;;;;;4977464;28;20469;-63
2023/08/17 05:51:08;;;;;;;22.37;20.33;;;17.00;99.90;;;;;;4977033;28;20466;-62
2023/08/17 05:53:35;;;;;;;23.17;20.97;;;17.00;99.90;;;;;;4976554;28;20489;-62
2023/08/17 05:56:02;;;;;;;21.07;18.93;;;17.00;99.90;;;;;;4976970;28;20963;-62
2023/08/17 05:58:31;;;;;;;22.23;19.87;;;17.00;99.90;;;;;;4973447;28;20491;-64
2023/08/17 06:01:07;;;;;;;21.07;19.03;;;17.10;99.90;;;;;;4958876;29;20451;-64
2023/08/17 06:03:34;;;;;;;22.23;19.97;;;17.20;99.90;;;;;;4958284;28;20876;-63
2023/08/17 06:06:01;;;;;;;21.80;19.60;;;17.20;99.90;;;;;;4957558;29;20455;-62
2023/08/17 06:08:29;;;;;;;20.57;18.57;;;17.40;99.90;;;;;;4970778;28;20454;-62
2023/08/17 06:10:56;;;;;;;19.17;17.43;;;17.30;99.90;;;;;;4960685;28;20498;-61
2023/08/17 06:13:24;;;;;;;20.83;18.83;;;17.40;99.90;;;;;;4980525;28;20497;-63
2023/08/17 06:15:52;;;;;;;19.70;17.93;;;17.50;99.90;;;;;;4980560;28;20465;-63
2023/08/17 06:18:20;;;;;;;20.50;18.30;;;17.50;99.90;;;;;;4980280;28;20497;-64
2023/08/17 06:20:50;;;;;;;18.87;16.87;;;17.60;99.90;;;;;;4966613;28;20466;-64
2023/08/17 06:23:17;;;;;;;18.33;16.50;;;17.60;99.90;;;;;;4962773;29;20513;-63
2023/08/17 06:25:45;;;;;;;17.33;15.63;;;17.60;99.90;;;;;;4962390;28;20466;-63
2023/08/17 06:28:12;;;;;;;19.70;17.77;;;17.60;99.90;;;;;;4962012;29;20980;-63
2023/08/17 06:30:39;;;;;;;18.77;16.67;;;17.60;99.90;;;;;;4969978;28;20472;-63
2023/08/17 06:33:08;;;;;;;18.00;15.13;;;17.70;99.90;;;;;;4981591;28;20472;-63
2023/08/17 06:35:35;;;;;;;16.87;15.17;;;17.70;99.90;;;;;;4981056;28;20573;-63
2023/08/17 06:38:03;;;;;;;17.80;15.90;;;17.80;99.90;;;;;;4981477;28;20502;-63
2023/08/17 06:40:30;;;;;;;17.03;15.30;;;17.80;99.90;;;;;;4979460;28;20554;-63
2023/08/17 06:42:57;;;;;;;16.67;14.83;;;17.90;99.90;;;;;;4963064;28;20536;-64
2023/08/17 06:45:24;;;;;;;15.43;13.97;;;18.00;99.90;;;;;;4961032;29;20967;-63
2023/08/17 06:47:51;;;;;;;15.10;13.50;;;18.00;99.90;;;;;;4962159;28;20462;-64
2023/08/17 06:50:20;;;;;;;13.03;11.73;;;17.80;99.90;;;;;;4961430;28;20552;-64
2023/08/17 06:52:48;;;;;;;14.10;12.83;;;17.90;99.90;;;;;;4961278;28;21092;-63
2023/08/17 06:55:16;;;;;;;14.37;12.87;;;18.00;99.90;;;;;;4961973;28;20565;-65
2023/08/17 06:57:44;;;;;;;13.30;12.00;;;18.00;99.90;;;;;;4980238;28;20494;-63
2023/08/17 07:00:12;;;;;;;15.40;13.90;;;18.00;99.90;;;;;;4963898;28;20972;-63
2023/08/17 07:02:40;;;;;;;15.30;13.87;;;18.00;99.90;;;;;;4959175;28;20520;-63
2023/08/17 07:05:08;;;;;;;17.47;15.80;;;17.90;99.90;;;;;;4967925;28;20484;-63
2023/08/17 07:07:36;;;;;;;14.93;13.53;;;17.90;99.90;;;;;;4975629;28;20935;-62
2023/08/17 07:10:04;;;;;;;14.07;12.83;;;18.00;99.90;;;;;;4961783;28;20513;-64
2023/08/17 07:12:31;;;;;;;13.70;12.30;;;18.00;99.90;;;;;;4977558;28;20520;-64
2023/08/17 07:14:59;;;;;;;14.63;13.17;;;18.10;99.90;;;;;;4971576;28;20465;-66
2023/08/17 07:17:26;;;;;;;15.60;14.00;;;18.20;99.90;;;;;;4963300;28;20562;-67
2023/08/17 07:19:53;;;;;;;15.00;13.50;;;18.30;99.90;;;;;;4968926;28;20469;-67
2023/08/17 07:22:20;;;;;;;15.73;14.17;;;18.20;99.90;;;;;;4960493;28;20553;-67
2023/08/17 07:24:49;;;;;;;17.17;15.27;;;18.30;99.90;;;;;;4958183;29;20888;-67
2023/08/17 07:27:16;;;;;;;17.90;16.07;;;18.20;99.90;;;;;;4964015;28;20465;-67
2023/08/17 07:29:43;;;;;;;17.30;15.40;;;18.40;99.90;;;;;;4977748;28;20454;-67
2023/08/17 07:32:11;;;;;;;17.43;15.80;;;18.20;99.90;;;;;;4975439;28;20469;-67
2023/08/17 07:34:38;;;;;;;17.40;15.77;;;18.20;99.90;;;;;;4977602;28;20464;-67
2023/08/17 07:37:06;;;;;;;17.17;15.47;;;18.20;99.90;;;;;;4976421;28;20561;-67
2023/08/17 07:39:33;;;;;;;15.77;14.17;;;18.20;99.90;;;;;;4979922;28;20494;-68
2023/08/17 07:42:01;;;;;;;15.20;13.80;;;18.20;99.90;;;;;;4979114;28;20505;-68
2023/08/17 07:44:31;;;;;;;16.10;14.50;;;18.10;99.90;;;;;;4971522;28;20968;-68
2023/08/17 07:46:58;;;;;;;15.97;14.20;;;18.10;99.90;;;;;;4961063;29;20521;-69
2023/08/17 07:49:26;;;;;;;14.20;12.80;;;18.20;99.90;;;;;;4960875;29;20844;-68
2023/08/17 07:51:53;;;;;;;15.03;13.63;;;18.30;99.90;;;;;;4960829;29;20501;-68
2023/08/17 07:54:21;;;;;;;15.33;13.80;;;18.30;99.90;;;;;;4960389;28;20537;-68
2023/08/17 07:56:48;;;;;;;15.47;14.07;;;18.30;99.90;;;;;;4960552;29;20463;-68
2023/08/17 07:59:17;;;;;;;16.03;14.60;;;18.20;99.90;;;;;;4961407;28;20498;-68
2023/08/17 08:01:44;;;;;;;13.83;12.63;;;18.30;99.90;;;;;;4960606;29;20467;-68
2023/08/17 08:04:11;;;;;;;14.63;13.33;;;18.40;99.90;;;;;;4960119;29;20469;-68
2023/08/17 08:06:39;;;;;;;15.70;14.23;;;18.30;99.90;;;;;;4960193;29;20466;-68
2023/08/17 08:09:07;;;;;;;16.97;14.27;;;18.50;99.90;;;;;;4960082;29;20458;-67
2023/08/17 08:11:34;;;;;;;14.70;13.30;;;18.50;99.90;;;;;;4961224;28;20471;-67
2023/08/17 08:14:01;;;;;;;13.77;12.50;;;18.50;99.90;;;;;;4960409;28;20500;-65
2023/08/17 08:16:30;;;;;;;13.50;12.30;;;18.70;99.90;;;;;;4977464;28;20521;-67
2023/08/17 08:18:57;;;;;;;13.33;11.93;;;18.80;99.90;;;;;;4979530;28;20497;-67
2023/08/17 08:21:26;;;;;;;15.27;13.87;;;18.70;99.90;;;;;;4977805;28;20472;-66
2023/08/17 08:23:53;;;;;;;15.40;14.00;;;18.70;99.90;;;;;;4979026;28;20466;-66
2023/08/17 08:26:21;;;;;;;15.43;14.13;;;18.50;99.90;;;;;;4978404;28;20858;-67
2023/08/17 08:28:48;;;;;;;13.60;12.47;;;18.60;99.90;;;;;;4979276;28;20485;-67
2023/08/17 08:31:15;;;;;;;15.07;13.60;;;18.60;99.90;;;;;;4977266;28;20502;-67
2023/08/17 08:33:44;;;;;;;15.83;14.47;;;18.80;99.90;;;;;;4969118;28;20477;-66
2023/08/17 08:36:12;;;;;;;11.90;10.90;;;18.80;99.90;;;;;;4959997;29;20462;-66
2023/08/17 08:38:39;;;;;;;14.67;13.27;;;18.70;99.90;;;;;;4959546;29;20494;-66
2023/08/17 08:41:09;;;;;;;14.23;12.97;;;18.80;99.90;;;;;;4959728;29;20557;-66
2023/08/17 08:43:36;;;;;;;14.13;12.77;;;18.90;99.90;;;;;;4959769;29;20494;-66
2023/08/17 08:46:07;;;;;;;14.83;13.33;;;18.70;99.90;;;;;;4959524;29;20517;-66
2023/08/17 08:48:35;;;;;;;15.83;14.33;;;18.90;99.90;;;;;;4959602;29;20558;-66
2023/08/17 08:51:08;;;;;;;15.97;14.33;;;18.90;99.90;;;;;;4959830;29;20499;-66
2023/08/17 08:53:39;;;;;;;16.23;14.80;;;19.00;99.90;;;;;;4959035;28;20496;-66
2023/08/17 08:56:11;;;;;;;14.97;13.67;;;19.00;99.90;;;;;;4960839;28;20502;-66
2023/08/17 08:58:41;;;;;;;15.60;14.20;;;19.00;99.90;;;;;;4977838;28;20970;-65
2023/08/17 09:01:10;;;;;;;14.70;13.50;;;19.10;99.90;;;;;;4978478;28;20829;-65
2023/08/17 09:03:38;;;;;;;14.83;13.53;;;19.00;99.90;;;;;;4979107;28;20497;-66
2023/08/17 09:06:07;;;;;;;14.20;13.00;;;19.10;99.90;;;;;;4973082;28;20828;-65
2023/08/17 09:08:34;;;;;;;14.70;13.37;;;19.30;99.90;;;;;;4977691;28;20462;-65
2023/08/17 09:11:01;;;;;;;13.67;12.50;;;19.50;99.90;;;;;;4978528;28;20490;-65
2023/08/17 09:13:29;;;;;;;14.00;12.77;;;19.60;99.90;;;;;;4978933;28;20466;-66
2023/08/17 09:16:01;;;;;;;15.77;14.27;;;19.60;99.90;;;;;;4972342;28;20820;-65
2023/08/17 09:18:28;;;;;;;14.53;13.07;;;19.60;99.90;;;;;;4959240;29;20573;-65
2023/08/17 09:20:56;;;;;;;13.53;12.23;;;19.40;99.90;;;;;;4970198;28;20472;-65
2023/08/17 09:23:24;;;;;;;13.93;12.40;;;19.50;99.90;;;;;;4978563;28;20516;-65
2023/08/17 09:25:57;;;;;;;13.97;12.77;;;19.70;99.90;;;;;;4976397;28;20556;-65
2023/08/17 09:28:25;;;;;;;13.97;12.67;;;19.80;99.90;;;;;;4958799;28;20892;-65
2023/08/17 09:30:53;;;;;;;15.23;13.83;;;19.70;99.90;;;;;;4958896;29;20553;-65
2023/08/17 09:33:22;;;;;;;13.40;12.10;;;19.80;99.90;;;;;;4958727;28;20467;-66
2023/08/17 09:35:51;;;;;;;14.87;13.57;;;19.90;99.90;;;;;;4959047;29;20517;-64
2023/08/17 09:38:18;;;;;;;13.67;12.57;;;19.80;99.90;;;;;;4959174;28;20573;-64
2023/08/17 09:40:47;;;;;;;13.40;12.20;;;19.80;99.90;;;;;;4974105;28;20556;-64
2023/08/17 09:43:15;;;;;;;14.77;13.57;;;20.10;99.90;;;;;;4977187;28;20471;-65
2023/08/17 09:45:46;;;;;;;15.13;13.77;;;20.10;99.90;;;;;;4975377;28;20536;-65
2023/08/17 09:48:17;;;;;;;15.03;13.63;;;20.20;99.90;;;;;;4963187;28;20501;-64
2023/08/17 09:50:44;;;;;;;13.97;12.77;;;20.00;99.90;;;;;;4957223;28;20906;-64
2023/08/17 09:53:16;;;;;;;15.27;13.93;;;20.10;99.90;;;;;;4956877;28;20549;-65
2023/08/17 09:55:44;;;;;;;13.60;12.30;;;20.00;99.90;;;;;;4957390;28;20533;-65
2023/08/17 09:58:15;;;;;;;14.40;13.20;;;20.10;99.90;;;;;;4963484;28;20465;-64
2023/08/17 10:00:46;;;;;;;12.77;11.67;;;20.20;99.90;;;;;;4975769;28;20470;-65
2023/08/17 10:03:15;;;;;;;15.70;14.40;;;20.40;99.90;;;;;;4975498;28;20466;-64
2023/08/17 10:05:45;;;;;;;14.20;13.00;;;20.30;99.90;;;;;;4975130;28;20883;-64
2023/08/17 10:08:14;;;;;;;15.33;14.03;;;20.40;99.90;;;;;;4970130;28;20940;-64
2023/08/17 10:10:45;;;;;;;16.53;15.03;;;20.30;99.90;;;;;;4967509;28;20930;-64
2023/08/17 10:13:25;;;;;;;16.00;14.60;;;20.40;99.90;;;;;;4974005;28;20585;-65
2023/08/17 10:15:58;;;;;;;14.90;13.60;;;20.20;99.90;;;;;;4973804;28;20556;-65
2023/08/17 10:18:32;;;;;;;16.33;14.93;;;20.10;99.90;;;;;;4973670;28;20568;-65
2023/08/17 10:21:04;;;;;;;16.20;14.80;;;20.10;99.90;;;;;;4958896;28;20824;-65
2023/08/17 10:23:32;;;;;;;15.73;14.23;;;20.10;99.90;;;;;;4958862;29;20473;-65
2023/08/17 10:26:02;;;;;;;15.23;13.83;;;20.30;99.90;;;;;;4958548;28;20466;-64
2023/08/17 10:28:33;;;;;;;14.03;12.83;;;20.40;99.90;;;;;;4957864;28;20469;-64
2023/08/17 10:31:00;;;;;;;14.90;13.50;;;20.30;99.90;;;;;;4976624;28;20465;-64
2023/08/17 10:33:29;;;;;;;13.60;12.30;;;20.40;99.90;;;;;;4976941;28;20513;-65
2023/08/17 10:35:58;;;;;;;14.57;13.37;;;20.80;99.90;;;;;;4978035;28;20938;-65
2023/08/17 10:38:25;;;;;;;13.17;12.07;;;20.80;99.90;;;;;;4977388;28;20485;-65
2023/08/17 10:41:10;;;;;;;13.47;12.17;;;20.70;99.90;;;;;;4963558;28;20555;-65
2023/08/17 10:43:57;;;;;;;14.40;13.20;;;20.60;1.00;;;;;;4958770;28;20570;-65
2023/08/17 10:46:34;;;;;;;14.17;12.97;;;20.70;99.90;;;;;;4958643;28;20545;-65
2023/08/17 10:49:06;;;;;;;13.63;12.33;;;21.10;1.00;;;;;;4958666;29;20454;-65
2023/08/17 10:51:34;;;;;;;12.30;11.20;;;21.30;99.90;;;;;;4973292;28;20469;-64
2023/08/17 10:54:04;;;;;;;12.30;11.20;;;21.30;1.00;;;;;;4975382;28;20503;-62
2023/08/17 10:56:32;;;;;;;11.70;10.53;;;21.50;99.90;;;;;;4979419;28;20557;-64
2023/08/17 10:59:24;;;;;;;12.20;11.00;;;21.70;99.90;;;;;;4980577;28;20494;-64
2023/08/17 11:01:53;;;;;;;12.07;11.00;;;21.90;99.90;;;;;;4967056;28;20525;-64
2023/08/17 11:04:22;;;;;;;12.17;11.07;;;21.50;35.40;;;;;;4961643;28;20462;-64
2023/08/17 11:07:03;;;;;;;12.87;11.77;;;21.30;36.10;;;;;;4961518;29;20465;-63
2023/08/17 11:09:31;;;;;;;12.67;11.60;;;21.40;97.20;;;;;;4961733;29;20466;-62
2023/08/17 11:12:01;;;;;;;11.80;10.60;;;21.40;92.60;;;;;;4961812;28;20558;-63
2023/08/17 11:14:35;;;;;;;14.43;13.13;;;21.40;99.90;;;;;;4961423;29;20565;-62
2023/08/17 11:17:04;;;;;;;11.87;10.87;;;21.20;99.90;;;;;;4961172;28;20561;-62
2023/08/17 11:19:32;;;;;;;11.30;10.23;;;21.20;99.90;;;;;;4961428;29;20494;-62
2023/08/17 11:21:59;;;;;;;13.23;12.13;;;21.30;99.90;;;;;;4966409;28;20504;-63
2023/08/17 11:24:27;;;;;;;12.63;11.47;;;21.40;99.90;;;;;;4980023;28;20489;-63
2023/08/17 11:26:57;;;;;;;12.73;11.53;;;21.50;97.80;;;;;;4963346;28;20502;-62
2023/08/17 11:29:25;;;;;;;13.60;12.50;;;21.80;99.90;;;;;;4961265;29;20494;-63
2023/08/17 11:31:53;;;;;;;11.30;10.37;;;21.80;22.30;;;;;;4961642;28;20466;-62
2023/08/17 11:34:21;;;;;;;12.20;11.10;;;22.00;86.50;;;;;;4979630;28;20552;-62
2023/08/17 11:36:48;;;;;;;11.77;10.77;;;22.30;7.90;;;;;;4979747;28;20470;-63
2023/08/17 11:39:16;;;;;;;11.67;10.57;;;22.50;1.00;;;;;;4979861;28;20585;-62
2023/08/17 11:41:43;;;;;;;13.00;11.70;;;22.60;1.00;;;;;;4977678;28;20548;-62
2023/08/17 11:44:10;;;;;;;12.30;11.20;;;22.70;1.00;;;;;;4961530;28;20897;-61
2023/08/17 11:46:39;;;;;;;12.60;11.40;;;22.40;1.00;;;;;;4959266;28;20557;-61
2023/08/17 11:49:07;;;;;;;11.27;10.10;;;22.00;1.00;;;;;;4962202;28;20455;-61
2023/08/17 11:51:35;;;;;;;11.73;10.70;;;22.10;1.00;;;;;;4978146;28;20461;-62
2023/08/17 11:54:04;;;;;;;13.03;11.70;;;22.30;1.00;;;;;;4967483;28;20777;-62
2023/08/17 11:56:32;;;;;;;11.37;10.27;;;22.30;1.00;;;;;;4960205;28;20847;-62
2023/08/17 11:58:59;;;;;;;12.10;10.90;;;22.20;1.00;;;;;;4958794;28;20455;-62
2023/08/17 12:01:26;;;;;;;12.07;10.87;;;22.10;1.00;;;;;;4958402;29;20467;-62
2023/08/17 12:03:53;;;;;;;12.50;11.30;;;21.90;1.00;;;;;;4964127;28;20553;-62
2023/08/17 12:06:22;;;;;;;12.87;11.53;;;21.60;1.00;;;;;;4978333;28;20907;-62
2023/08/17 12:08:51;;;;;;;11.00;9.90;;;21.60;1.00;;;;;;4978384;28;20466;-62
2023/08/17 12:11:20;;;;;;;11.67;10.50;;;21.50;23.60;;;;;;4979729;28;20473;-62
2023/08/17 12:13:51;;;;;;;11.40;10.40;;;21.80;71.30;;;;;;4978876;28;20847;-62
2023/08/17 12:16:19;;;;;;;10.10;9.10;;;22.00;93.80;;;;;;4978693;28;20465;-63
2023/08/17 12:18:48;;;;;;;10.70;9.80;;;22.10;48.70;;;;;;4979735;28;20892;-62
2023/08/17 12:21:16;;;;;;;10.63;9.63;;;22.30;16.00;;;;;;4979777;28;20505;-62
2023/08/17 12:23:45;;;;;;;10.87;9.87;;;22.30;1.00;;;;;;4979918;28;20497;-62
2023/08/17 12:26:18;;;;;;;9.03;8.23;;;22.10;1.00;;;;;;4979453;28;20488;-62
2023/08/17 12:28:46;;;;;;;10.27;9.37;;;21.90;1.00;;;;;;4979091;28;20516;-62
2023/08/17 12:31:14;;;;;;;9.57;8.77;;;21.30;1.00;;;;;;4974940;28;20458;-62
2023/08/17 12:33:41;;;;;;;10.13;9.23;;;21.10;66.80;;;;;;4959655;29;20747;-62